createdAt,value
2023-12-24T00:02:05.714Z,95165.13
2023-12-24T00:04:33.220Z,95212.22
2023-12-24T00:07:00.586Z,95207.31
2023-12-24T00:09:28.004Z,95171.22
2023-12-24T00:11:55.425Z,95085.56
2023-12-24T00:14:22.860Z,95153.59
2023-12-24T00:16:50.413Z,95157.91
2023-12-24T00:19:17.932Z,95210.88
2023-12-24T00:21:45.474Z,95174.47
2023-12-24T00:24:13.174Z,95206.56
2023-12-24T00:26:40.779Z,95190.75
2023-12-24T00:29:08.406Z,95189.22
2023-12-24T00:31:35.993Z,95226.75
2023-12-24T00:34:03.545Z,95177.03
2023-12-24T00:36:31.091Z,95248.28
2023-12-24T00:38:58.393Z,95218.16
2023-12-24T00:41:26.024Z,95187.00
2023-12-24T00:43:53.828Z,95187.78
2023-12-24T00:46:21.432Z,95224.63
2023-12-24T00:48:49.349Z,95187.03
2023-12-24T00:51:16.823Z,95250.91
2023-12-24T00:53:44.343Z,95095.81
2023-12-24T00:56:11.938Z,95144.28
2023-12-24T00:58:39.510Z,95169.47
2023-12-24T01:01:07.742Z,95224.75
2023-12-24T01:03:35.355Z,95163.53
2023-12-24T01:06:02.853Z,95186.22
2023-12-24T01:08:30.614Z,95155.63
2023-12-24T01:10:58.687Z,95147.03
2023-12-24T01:13:25.967Z,95208.78
2023-12-24T01:15:53.260Z,95177.72
2023-12-24T01:18:25.033Z,95200.19
2023-12-24T01:20:52.598Z,95215.06
2023-12-24T01:23:20.363Z,95201.22
2023-12-24T01:25:47.844Z,95173.75
2023-12-24T01:28:16.410Z,95187.13
2023-12-24T01:30:44.019Z,95235.84
2023-12-24T01:33:11.694Z,95178.75
2023-12-24T01:35:47.148Z,95293.31
2023-12-24T01:38:14.808Z,95205.25
2023-12-24T01:40:52.639Z,95232.72
2023-12-24T01:43:20.103Z,95216.63
2023-12-24T01:45:47.581Z,95217.66
2023-12-24T01:48:17.719Z,95179.91
2023-12-24T01:50:47.613Z,95188.06
2023-12-24T01:53:18.042Z,95153.66
2023-12-24T01:55:48.463Z,95160.09
2023-12-24T01:58:16.856Z,95180.09
2023-12-24T02:00:44.689Z,95185.56
2023-12-24T02:03:12.766Z,95218.13
2023-12-24T02:05:42.339Z,95285.41
2023-12-24T02:08:12.341Z,95220.91
2023-12-24T02:10:39.932Z,95182.97
2023-12-24T02:13:08.978Z,95217.81
2023-12-24T02:15:36.865Z,95215.81
2023-12-24T02:18:04.953Z,95241.34
2023-12-24T02:20:32.842Z,95166.97
2023-12-24T02:23:00.673Z,95264.97
2023-12-24T02:25:28.453Z,95237.88
2023-12-24T02:28:16.635Z,95286.28
2023-12-24T02:30:49.512Z,95180.16
2023-12-24T02:33:19.419Z,95084.91
2023-12-24T02:35:49.479Z,95238.84
2023-12-24T02:38:17.030Z,95212.47
2023-12-24T02:40:44.612Z,95250.50
2023-12-24T02:43:12.241Z,95197.84
2023-12-24T02:45:41.549Z,95223.97
2023-12-24T02:48:09.180Z,95204.44
2023-12-24T02:50:37.843Z,95214.84
2023-12-24T02:53:05.423Z,95292.63
2023-12-24T02:55:32.919Z,95276.66
2023-12-24T02:58:00.362Z,95208.31
2023-12-24T03:00:27.845Z,95142.72
2023-12-24T03:02:55.671Z,95207.97
2023-12-24T03:05:23.710Z,95167.59
2023-12-24T03:07:51.295Z,95188.63
2023-12-24T03:10:18.759Z,95167.75
2023-12-24T03:12:46.396Z,95185.69
2023-12-24T03:15:13.931Z,95140.00
2023-12-24T03:17:41.654Z,95177.16
2023-12-24T03:20:10.111Z,95267.75
2023-12-24T03:22:37.680Z,95207.41
2023-12-24T03:25:05.857Z,95205.28
2023-12-24T03:27:33.172Z,95207.34
2023-12-24T03:30:01.519Z,95169.19
2023-12-24T03:32:29.104Z,95276.69
2023-12-24T03:34:56.489Z,95171.94
2023-12-24T03:37:24.419Z,95199.44
2023-12-24T03:39:51.934Z,95167.66
2023-12-24T03:42:19.545Z,95185.63
2023-12-24T03:44:47.182Z,95198.41
2023-12-24T03:47:14.766Z,95141.88
2023-12-24T03:49:42.340Z,95086.94
2023-12-24T03:52:09.923Z,95109.34
2023-12-24T03:54:37.410Z,95102.13
2023-12-24T03:57:05.034Z,95148.78
2023-12-24T03:59:32.455Z,95149.88
2023-12-24T04:02:00.222Z,95167.53
2023-12-24T04:04:27.836Z,95109.38
2023-12-24T04:06:55.219Z,95117.94
2023-12-24T04:09:22.965Z,95158.47
2023-12-24T04:11:50.795Z,95111.63
2023-12-24T04:14:19.283Z,95096.59
2023-12-24T04:16:46.772Z,95166.44
2023-12-24T04:19:14.295Z,95097.97
2023-12-24T04:21:41.791Z,95125.59
2023-12-24T04:24:11.691Z,95161.81
2023-12-24T04:26:40.159Z,95120.56
2023-12-24T04:29:07.756Z,95125.47
2023-12-24T04:31:41.162Z,95213.91
2023-12-24T04:34:09.544Z,95140.50
2023-12-24T04:36:37.995Z,95121.63
2023-12-24T04:39:05.675Z,95141.59
2023-12-24T04:41:35.780Z,95240.06
2023-12-24T04:44:05.490Z,95132.84
2023-12-24T04:46:33.147Z,95189.16
2023-12-24T04:49:00.790Z,95148.34
2023-12-24T04:51:28.461Z,95214.47
2023-12-24T04:53:56.022Z,95114.25
2023-12-24T04:56:23.680Z,95163.22
2023-12-24T04:58:53.060Z,95100.09
2023-12-24T05:01:23.910Z,95196.09
2023-12-24T05:03:51.632Z,95194.53
2023-12-24T05:06:19.185Z,95144.22
2023-12-24T05:08:46.862Z,95079.28
2023-12-24T05:11:14.402Z,95168.19
2023-12-24T05:13:42.183Z,95173.25
2023-12-24T05:16:09.691Z,95146.81
2023-12-24T05:18:37.407Z,95130.41
2023-12-24T05:21:05.107Z,95169.25
2023-12-24T05:23:33.114Z,95208.50
2023-12-24T05:26:00.898Z,95058.72
2023-12-24T05:28:28.836Z,95138.97
2023-12-24T05:30:56.334Z,95103.66
2023-12-24T05:33:25.136Z,95218.06
2023-12-24T05:35:54.466Z,95125.28
2023-12-24T05:38:21.866Z,95126.53
2023-12-24T05:40:49.392Z,95214.22
2023-12-24T05:43:16.769Z,95170.91
2023-12-24T05:45:47.907Z,95180.88
2023-12-24T05:48:15.460Z,95165.88
2023-12-24T05:50:42.887Z,95146.63
2023-12-24T05:53:12.688Z,95212.25
2023-12-24T05:55:40.261Z,95176.41
2023-12-24T05:58:07.859Z,95127.13
2023-12-24T06:00:37.335Z,95129.16
2023-12-24T06:03:05.441Z,95203.75
2023-12-24T06:05:33.060Z,95115.00
2023-12-24T06:08:00.800Z,95166.72
2023-12-24T06:10:28.356Z,95162.75
2023-12-24T06:12:55.917Z,95197.00
2023-12-24T06:15:23.728Z,95138.06
2023-12-24T06:17:51.486Z,95143.75
2023-12-24T06:20:19.122Z,95149.44
2023-12-24T06:22:46.843Z,95172.00
2023-12-24T06:25:14.372Z,95153.56
2023-12-24T06:27:41.956Z,95205.47
2023-12-24T06:30:10.318Z,95190.56
2023-12-24T06:32:38.084Z,95178.13
2023-12-24T06:35:05.954Z,95213.00
2023-12-24T06:37:33.557Z,95204.09
2023-12-24T06:40:01.069Z,95183.38
2023-12-24T06:42:28.636Z,95150.38
2023-12-24T06:44:56.015Z,95135.91
2023-12-24T06:47:23.705Z,95182.47
2023-12-24T06:49:51.130Z,95159.44
2023-12-24T06:52:18.608Z,95224.72
2023-12-24T06:54:46.211Z,95199.84
2023-12-24T06:57:13.780Z,95184.63
2023-12-24T06:59:41.329Z,95263.59
2023-12-24T07:02:09.216Z,95133.66
2023-12-24T07:04:37.295Z,95226.72
2023-12-24T07:07:05.229Z,95190.78
2023-12-24T07:09:33.021Z,95130.25
2023-12-24T07:12:01.035Z,95184.47
2023-12-24T07:14:28.623Z,95219.97
2023-12-24T07:16:56.107Z,95219.38
2023-12-24T07:19:23.806Z,95182.00
2023-12-24T07:21:51.424Z,95220.91
2023-12-24T07:24:18.980Z,95276.03
2023-12-24T07:26:47.042Z,95149.78
2023-12-24T07:29:14.529Z,95171.59
2023-12-24T07:31:42.095Z,95171.41
2023-12-24T07:34:09.648Z,95219.06
2023-12-24T07:36:37.280Z,95229.06
2023-12-24T07:39:05.147Z,95163.28
2023-12-24T07:41:33.222Z,95231.66
2023-12-24T07:44:06.000Z,95138.72
2023-12-24T07:46:33.553Z,95185.25
2023-12-24T07:49:01.035Z,95229.34
2023-12-24T07:51:30.248Z,95211.66
2023-12-24T07:53:57.708Z,95147.47
2023-12-24T07:56:25.079Z,95090.34
2023-12-24T07:58:53.046Z,95134.41
2023-12-24T08:01:20.408Z,95127.50
2023-12-24T08:03:47.876Z,95168.19
2023-12-24T08:06:27.095Z,95175.09
2023-12-24T08:08:56.879Z,95159.28
2023-12-24T08:11:24.548Z,95153.28
2023-12-24T08:13:52.415Z,95164.78
2023-12-24T08:16:21.232Z,95151.13
2023-12-24T08:18:48.741Z,95162.16
2023-12-24T08:21:16.288Z,95144.66
2023-12-24T08:23:43.961Z,95188.44
2023-12-24T08:26:13.057Z,95132.53
2023-12-24T08:28:41.803Z,95071.28
2023-12-24T08:31:09.091Z,95167.22
2023-12-24T08:33:36.724Z,95186.09
2023-12-24T08:36:05.248Z,95201.94
2023-12-24T08:38:32.657Z,95183.94
2023-12-24T08:41:00.091Z,95109.66
2023-12-24T08:43:27.692Z,95146.34
2023-12-24T08:45:54.990Z,95161.69
2023-12-24T08:48:22.690Z,95133.59
2023-12-24T08:50:50.444Z,95154.47
2023-12-24T08:53:17.899Z,95068.81
2023-12-24T08:55:46.740Z,95022.47
2023-12-24T08:58:14.237Z,95096.91
2023-12-24T09:00:41.637Z,95045.19
2023-12-24T09:03:09.296Z,95152.63
2023-12-24T09:05:36.728Z,95221.88
2023-12-24T09:08:05.204Z,95029.53
2023-12-24T09:10:32.843Z,95137.72
2023-12-24T09:13:00.332Z,95150.47
2023-12-24T09:15:27.872Z,95118.13
2023-12-24T09:17:55.594Z,95134.69
2023-12-24T09:20:23.234Z,95057.63
2023-12-24T09:22:50.962Z,95107.94
2023-12-24T09:25:18.672Z,95139.44
2023-12-24T09:27:46.152Z,95165.81
2023-12-24T09:30:14.335Z,95158.03
2023-12-24T09:32:45.138Z,95190.25
2023-12-24T09:35:12.647Z,95222.19
2023-12-24T09:37:40.029Z,95173.34
2023-12-24T09:40:09.142Z,95118.22
2023-12-24T09:42:37.079Z,95135.41
2023-12-24T09:45:04.768Z,95132.19
2023-12-24T09:47:32.359Z,95132.81
2023-12-24T09:50:02.603Z,95158.59
2023-12-24T09:52:30.821Z,95224.59
2023-12-24T09:54:58.557Z,95132.19
2023-12-24T09:57:26.851Z,95121.72
2023-12-24T09:59:54.300Z,95133.53
2023-12-24T10:02:21.860Z,95210.91
2023-12-24T10:04:49.467Z,95132.59
2023-12-24T10:07:16.932Z,95116.34
2023-12-24T10:09:51.225Z,95136.41
2023-12-24T10:12:20.576Z,95153.00
2023-12-24T10:15:00.183Z,95177.56
2023-12-24T10:17:36.392Z,95151.91
2023-12-24T10:20:10.370Z,95166.19
2023-12-24T10:22:38.430Z,95205.91
2023-12-24T10:25:08.376Z,95101.84
2023-12-24T10:27:36.557Z,95148.66
2023-12-24T10:30:14.959Z,95194.84
2023-12-24T10:32:44.728Z,95192.25
2023-12-24T10:35:13.851Z,95191.28
2023-12-24T10:37:41.240Z,95103.09
2023-12-24T10:40:10.768Z,95110.28
2023-12-24T10:42:39.522Z,95201.44
2023-12-24T10:45:08.270Z,95150.19
2023-12-24T10:47:36.569Z,95195.44
2023-12-24T10:50:05.396Z,95170.44
2023-12-24T10:52:33.160Z,95055.22
2023-12-24T10:55:02.422Z,95182.88
2023-12-24T10:58:05.658Z,95176.91
2023-12-24T11:00:33.071Z,95107.09
2023-12-24T11:03:00.612Z,95122.69
2023-12-24T11:05:31.217Z,95185.94
2023-12-24T11:07:59.001Z,95117.78
2023-12-24T11:10:40.579Z,95172.28
2023-12-24T11:13:33.192Z,95177.75
2023-12-24T11:16:01.915Z,95072.91
2023-12-24T11:18:46.216Z,95069.97
2023-12-24T11:21:15.909Z,95107.75
2023-12-24T11:24:03.911Z,95172.63
2023-12-24T11:26:32.976Z,95152.69
2023-12-24T11:29:01.396Z,95166.31
2023-12-24T11:31:29.231Z,95065.50
2023-12-24T11:33:57.808Z,95156.16
2023-12-24T11:36:26.368Z,95045.44
2023-12-24T11:38:58.953Z,95131.28
2023-12-24T11:41:27.717Z,95096.09
2023-12-24T11:44:02.550Z,95109.31
2023-12-24T11:46:31.871Z,95103.19
2023-12-24T11:49:08.609Z,95096.59
2023-12-24T11:51:36.654Z,95122.31
2023-12-24T11:54:05.549Z,95148.56
2023-12-24T11:56:34.293Z,95147.31
2023-12-24T11:59:09.131Z,95146.22
2023-12-24T12:01:40.075Z,95063.09
2023-12-24T12:04:08.375Z,95035.97
2023-12-24T12:06:37.768Z,95138.38
2023-12-24T12:09:08.330Z,95135.44
2023-12-24T12:11:35.964Z,95054.59
2023-12-24T12:14:03.749Z,95141.09
2023-12-24T12:16:31.347Z,95052.81
2023-12-24T12:18:58.968Z,95083.88
2023-12-24T12:21:26.446Z,95035.59
2023-12-24T12:23:54.374Z,95052.44
2023-12-24T12:26:21.830Z,95134.63
2023-12-24T12:28:49.228Z,95047.69
2023-12-24T12:31:16.759Z,95013.59
2023-12-24T12:33:47.076Z,95019.41
2023-12-24T12:36:16.444Z,95035.06
2023-12-24T12:38:43.853Z,95024.91
2023-12-24T12:41:11.312Z,95132.38
2023-12-24T12:43:38.749Z,95019.41
2023-12-24T12:46:06.318Z,95059.88
2023-12-24T12:48:33.840Z,95036.38
2023-12-24T12:51:02.416Z,95040.28
2023-12-24T12:53:29.859Z,95036.34
2023-12-24T12:56:05.226Z,95079.28
2023-12-24T12:58:33.608Z,95110.59
2023-12-24T13:01:01.911Z,95138.75
2023-12-24T13:03:29.883Z,95034.28
2023-12-24T13:05:59.625Z,95113.03
2023-12-24T13:08:29.950Z,95092.78
2023-12-24T13:11:08.384Z,95033.72
2023-12-24T13:13:36.284Z,95020.81
2023-12-24T13:16:08.857Z,95082.19
2023-12-24T13:18:37.393Z,95022.84
2023-12-24T13:21:09.468Z,95070.50
2023-12-24T13:23:37.163Z,95040.16
2023-12-24T13:26:05.705Z,95000.59
2023-12-24T13:28:35.278Z,95008.44
2023-12-24T13:31:05.677Z,95079.34
2023-12-24T13:33:33.339Z,95013.47
2023-12-24T13:36:01.110Z,95075.41
2023-12-24T13:38:30.122Z,95022.66
2023-12-24T13:40:59.929Z,95047.31
2023-12-24T13:43:30.097Z,95047.19
2023-12-24T13:45:58.783Z,95079.47
2023-12-24T13:48:26.300Z,95038.09
2023-12-24T13:50:54.800Z,95082.06
2023-12-24T13:53:28.753Z,95058.75
2023-12-24T13:56:02.189Z,95144.81
2023-12-24T13:58:30.333Z,95036.34
2023-12-24T14:00:58.664Z,95102.53
2023-12-24T14:03:29.205Z,95079.81
2023-12-24T14:05:58.565Z,95028.97
2023-12-24T14:08:28.036Z,95075.09
2023-12-24T14:10:55.646Z,95033.13
2023-12-24T14:13:22.888Z,95058.88
2023-12-24T14:15:50.494Z,95120.75
2023-12-24T14:18:18.672Z,95058.66
2023-12-24T14:20:46.358Z,95046.03
2023-12-24T14:23:14.261Z,95034.47
2023-12-24T14:25:41.747Z,95071.50
2023-12-24T14:28:10.180Z,95094.94
2023-12-24T14:30:37.838Z,95048.16
2023-12-24T14:33:05.696Z,95068.50
2023-12-24T14:35:33.380Z,95075.84
2023-12-24T14:38:00.718Z,95061.34
2023-12-24T14:40:29.066Z,95034.28
2023-12-24T14:42:56.697Z,95115.38
2023-12-24T14:45:24.184Z,95084.41
2023-12-24T14:47:51.723Z,95071.84
2023-12-24T14:50:25.066Z,95060.13
2023-12-24T14:52:56.023Z,94998.84
2023-12-24T14:55:23.558Z,95017.06
2023-12-24T14:57:51.029Z,95039.91
2023-12-24T15:00:18.886Z,95006.59
2023-12-24T15:02:47.881Z,95033.13
2023-12-24T15:05:15.492Z,95105.69
2023-12-24T15:07:42.905Z,94986.84
2023-12-24T15:10:11.137Z,95037.59
2023-12-24T15:12:38.643Z,94996.38
2023-12-24T15:15:07.104Z,94998.69
2023-12-24T15:17:36.502Z,95010.63
2023-12-24T15:20:05.774Z,95024.38
2023-12-24T15:22:33.321Z,95012.91
2023-12-24T15:25:00.804Z,95067.47
2023-12-24T15:27:28.090Z,95038.63
2023-12-24T15:29:55.764Z,94979.44
2023-12-24T15:32:23.726Z,94995.41
2023-12-24T15:34:51.271Z,95008.13
2023-12-24T15:37:18.684Z,95057.69
2023-12-24T15:39:45.996Z,95040.19
2023-12-24T15:42:13.437Z,95065.22
2023-12-24T15:44:41.266Z,95014.03
2023-12-24T15:47:08.565Z,94989.47
2023-12-24T15:49:36.110Z,94978.19
2023-12-24T15:52:04.375Z,95042.06
2023-12-24T15:54:31.914Z,95057.69
2023-12-24T15:57:00.185Z,94989.59
2023-12-24T15:59:27.834Z,95029.66
2023-12-24T16:01:55.226Z,94992.78
2023-12-24T16:04:22.892Z,94973.81
2023-12-24T16:06:50.515Z,95037.75
2023-12-24T16:09:17.982Z,95045.41
2023-12-24T16:11:45.495Z,94961.44
2023-12-24T16:14:13.004Z,95059.31
2023-12-24T16:16:40.377Z,95001.91
2023-12-24T16:19:17.094Z,95057.00
2023-12-24T16:21:44.510Z,95072.91
2023-12-24T16:24:11.863Z,94980.69
2023-12-24T16:26:39.418Z,95030.19
2023-12-24T16:29:07.137Z,94960.69
2023-12-24T16:31:34.637Z,95047.59
2023-12-24T16:34:02.142Z,94989.22
2023-12-24T16:36:29.677Z,94970.28
2023-12-24T16:38:57.151Z,94958.94
2023-12-24T16:41:24.920Z,95032.09
2023-12-24T16:43:52.557Z,94992.22
2023-12-24T16:46:21.234Z,94994.50
2023-12-24T16:48:48.919Z,95006.41
2023-12-24T16:51:20.331Z,94983.59
2023-12-24T16:53:49.194Z,95079.59
2023-12-24T16:56:16.845Z,94951.13
2023-12-24T16:58:45.134Z,95063.97
2023-12-24T17:01:12.710Z,95006.00
2023-12-24T17:03:41.695Z,95004.47
2023-12-24T17:06:09.650Z,94993.00
2023-12-24T17:08:38.241Z,94984.69
2023-12-24T17:11:06.371Z,95018.00
2023-12-24T17:13:34.607Z,94986.88
2023-12-24T17:16:02.053Z,94984.25
2023-12-24T17:18:33.520Z,95012.38
2023-12-24T17:21:01.571Z,95002.31
2023-12-24T17:23:29.169Z,95022.53
2023-12-24T17:25:56.775Z,94971.66
2023-12-24T17:28:24.103Z,94986.53
2023-12-24T17:30:51.693Z,94981.78
2023-12-24T17:33:19.423Z,95019.47
2023-12-24T17:35:47.263Z,94968.66
2023-12-24T17:38:18.559Z,94911.91
2023-12-24T17:40:46.145Z,95003.38
2023-12-24T17:43:13.610Z,94901.97
2023-12-24T17:45:42.663Z,95041.97
2023-12-24T17:48:17.195Z,94974.50
2023-12-24T17:50:48.991Z,95029.63
2023-12-24T17:53:19.002Z,94974.97
2023-12-24T17:55:46.653Z,94993.88
2023-12-24T17:58:14.598Z,94981.63
2023-12-24T18:00:42.049Z,94979.59
2023-12-24T18:03:14.095Z,94980.34
2023-12-24T18:05:41.916Z,94980.47
2023-12-24T18:08:09.494Z,94972.06
2023-12-24T18:10:37.123Z,94936.97
2023-12-24T18:13:04.890Z,94981.78
2023-12-24T18:15:34.856Z,94923.19
2023-12-24T18:18:04.595Z,95046.91
2023-12-24T18:20:32.281Z,95032.69
2023-12-24T18:22:59.677Z,95007.47
2023-12-24T18:25:27.134Z,94956.94
2023-12-24T18:27:55.935Z,94990.97
2023-12-24T18:30:23.895Z,94999.47
2023-12-24T18:32:52.074Z,94995.00
2023-12-24T18:35:19.776Z,95022.09
2023-12-24T18:37:47.242Z,94989.94
2023-12-24T18:40:16.124Z,95013.34
2023-12-24T18:42:43.675Z,94983.09
2023-12-24T18:45:11.179Z,95085.66
2023-12-24T18:47:38.656Z,95110.91
2023-12-24T18:50:07.118Z,94936.72
2023-12-24T18:52:34.594Z,95046.69
2023-12-24T18:55:02.171Z,95096.31
2023-12-24T18:57:29.736Z,95020.84
2023-12-24T18:59:57.215Z,95014.88
2023-12-24T19:02:24.840Z,95036.66
2023-12-24T19:04:52.449Z,95046.56
2023-12-24T19:07:20.027Z,95111.38
2023-12-24T19:09:47.577Z,95067.66
2023-12-24T19:12:20.461Z,95015.53
2023-12-24T19:14:47.892Z,95031.16
2023-12-24T19:17:15.675Z,95092.44
2023-12-24T19:19:43.463Z,95027.47
2023-12-24T19:22:11.920Z,95019.50
2023-12-24T19:24:39.482Z,95007.56
2023-12-24T19:27:07.971Z,95012.41
2023-12-24T19:29:35.595Z,95027.41
2023-12-24T19:32:03.037Z,94972.81
2023-12-24T19:34:30.601Z,95006.91
2023-12-24T19:36:59.332Z,95022.31
2023-12-24T19:39:26.940Z,94989.78
2023-12-24T19:41:54.449Z,95011.97
2023-12-24T19:44:22.047Z,95062.06
2023-12-24T19:46:49.518Z,94963.00
2023-12-24T19:49:19.966Z,94978.63
2023-12-24T19:51:48.195Z,95033.59
2023-12-24T19:54:15.732Z,95001.34
2023-12-24T19:56:45.350Z,95079.66
2023-12-24T19:59:12.861Z,94947.63
2023-12-24T20:01:45.485Z,94999.34
2023-12-24T20:04:14.246Z,94935.94
2023-12-24T20:06:42.380Z,95051.88
2023-12-24T20:09:09.916Z,94941.06
2023-12-24T20:11:37.424Z,94992.31
2023-12-24T20:14:05.089Z,94986.53
2023-12-24T20:16:32.875Z,94949.47
2023-12-24T20:19:00.557Z,95010.13
2023-12-24T20:21:28.030Z,94979.72
2023-12-24T20:23:55.648Z,94928.59
2023-12-24T20:26:23.193Z,95004.44
2023-12-24T20:28:50.624Z,94996.69
2023-12-24T20:31:18.207Z,94996.78
2023-12-24T20:33:48.314Z,94975.16
2023-12-24T20:36:17.341Z,95041.84
2023-12-24T20:38:44.912Z,94980.94
2023-12-24T20:41:12.539Z,95017.84
2023-12-24T20:43:39.901Z,95030.47
2023-12-24T20:46:07.546Z,95055.38
2023-12-24T20:48:35.380Z,94973.59
2023-12-24T20:51:04.094Z,95046.22
2023-12-24T20:53:31.798Z,95077.69
2023-12-24T20:55:59.466Z,95002.44
2023-12-24T20:58:26.908Z,94975.25
2023-12-24T21:00:56.106Z,95033.44
2023-12-24T21:03:23.791Z,94997.34
2023-12-24T21:05:51.390Z,95041.50
2023-12-24T21:08:19.151Z,95050.03
2023-12-24T21:10:46.698Z,95029.72
2023-12-24T21:13:14.144Z,94986.09
2023-12-24T21:15:41.705Z,95018.53
2023-12-24T21:18:09.338Z,95028.69
2023-12-24T21:20:36.960Z,95025.84
2023-12-24T21:23:04.586Z,95035.56
2023-12-24T21:25:32.009Z,95009.53
2023-12-24T21:27:59.407Z,94999.81
2023-12-24T21:30:27.054Z,95018.94
2023-12-24T21:32:54.870Z,95001.03
2023-12-24T21:35:22.511Z,95006.72
2023-12-24T21:37:50.756Z,95033.59
2023-12-24T21:40:18.394Z,94983.97
2023-12-24T21:42:45.967Z,95046.69
2023-12-24T21:45:13.601Z,95011.59
2023-12-24T21:47:41.241Z,95007.34
2023-12-24T21:50:09.090Z,95017.94
2023-12-24T21:52:38.382Z,95009.84
2023-12-24T21:55:06.134Z,94939.91
2023-12-24T21:57:33.664Z,95074.78
2023-12-24T22:00:01.275Z,95092.09
2023-12-24T22:02:28.860Z,95000.25
2023-12-24T22:04:56.502Z,94998.47
2023-12-24T22:07:23.762Z,95128.31
2023-12-24T22:09:51.297Z,95069.41
2023-12-24T22:12:18.830Z,94972.94
2023-12-24T22:14:46.419Z,95047.22
2023-12-24T22:17:14.073Z,95011.47
2023-12-24T22:19:42.550Z,95023.06
2023-12-24T22:22:12.790Z,95066.44
2023-12-24T22:24:40.365Z,95011.13
2023-12-24T22:27:07.732Z,95061.34
2023-12-24T22:29:40.068Z,95040.78
2023-12-24T22:32:08.136Z,95019.13
2023-12-24T22:34:36.044Z,95011.59
2023-12-24T22:37:03.597Z,95022.63
2023-12-24T22:39:30.954Z,95038.81
2023-12-24T22:41:58.529Z,95065.94
2023-12-24T22:44:27.382Z,95023.94
2023-12-24T22:46:54.924Z,95015.41
2023-12-24T22:49:22.544Z,94979.00
2023-12-24T22:51:50.063Z,95031.25
2023-12-24T22:54:17.447Z,95056.84
2023-12-24T22:56:45.102Z,95040.03
2023-12-24T22:59:12.466Z,95048.97
2023-12-24T23:01:47.393Z,95049.94
2023-12-24T23:04:14.987Z,95072.75
2023-12-24T23:06:42.535Z,95119.81
2023-12-24T23:09:10.009Z,95034.19
2023-12-24T23:11:37.566Z,95038.13
2023-12-24T23:14:05.097Z,95045.00
2023-12-24T23:16:32.575Z,95041.28
2023-12-24T23:19:00.148Z,95099.34
2023-12-24T23:21:27.664Z,95082.41
2023-12-24T23:23:55.810Z,95084.91
2023-12-24T23:26:23.379Z,95001.44
2023-12-24T23:28:51.005Z,95099.97
2023-12-24T23:31:18.499Z,95091.00
2023-12-24T23:33:46.202Z,95072.28
2023-12-24T23:36:13.652Z,95090.19
2023-12-24T23:38:41.265Z,95076.47
2023-12-24T23:41:08.617Z,95078.00
2023-12-24T23:43:38.690Z,95046.84
2023-12-24T23:46:10.311Z,95085.22
2023-12-24T23:48:37.890Z,95087.59
2023-12-24T23:51:06.107Z,95099.84
2023-12-24T23:53:33.641Z,95108.28
2023-12-24T23:56:01.134Z,95060.66
2023-12-24T23:58:28.464Z,95102.03
